Time;durP1;ratioP1;P1;durP2;ratioP2;P2;SDS_P1;SDS_P2;PMS_P1;PMS_P2;Temp;Humidity;BMP_temperature;BMP_pressure;BME280_temperature;BME280_humidity;BME280_pressure;Samples;Min_cycle;Max_cycle;Signal;HPM_P1;HPM_P2
2021/08/11 00:03:27;;;;;;;7.95;6.97;;;;;;;;;;10274428;28;20052;-58
2021/08/11 00:08:25;;;;;;;9.50;7.30;;;;;;;;;;10274063;28;20041;-59
2021/08/11 00:13:25;;;;;;;8.98;6.75;;;;;;;;;;10274252;28;20059;-58
2021/08/11 00:18:24;;;;;;;7.80;7.10;;;;;;;;;;10274340;28;20080;-59
2021/08/11 00:23:24;;;;;;;7.00;6.30;;;;;;;;;;10280164;28;20048;-59
2021/08/11 00:28:23;;;;;;;6.95;6.25;;;;;;;;;;10281801;28;20064;-58
2021/08/11 00:33:23;;;;;;;7.78;7.05;;;;;;;;;;10280972;28;20048;-59
2021/08/11 00:38:22;;;;;;;7.60;6.43;;;;;;;;;;10279332;28;20053;-59
2021/08/11 00:43:25;;;;;;;10.07;6.97;;;;;;;;;;10279315;28;20055;-59
2021/08/11 00:48:26;;;;;;;7.85;6.82;;;;;;;;;;10279956;28;20075;-59
2021/08/11 00:53:27;;;;;;;7.70;7.00;;;;;;;;;;10278814;28;20053;-59
2021/08/11 00:58:29;;;;;;;11.15;7.20;;;;;;;;;;10278493;28;20053;-60
2021/08/11 01:03:29;;;;;;;7.70;6.88;;;;;;;;;;10279025;28;20053;-58
2021/08/11 01:08:29;;;;;;;8.10;7.30;;;;;;;;;;10278185;28;20049;-59
2021/08/11 01:13:29;;;;;;;10.13;6.40;;;;;;;;;;10278152;28;20072;-58
2021/08/11 01:18:30;;;;;;;7.32;6.35;;;;;;;;;;10278518;28;20049;-59
2021/08/11 01:23:34;;;;;;;8.20;7.18;;;;;;;;;;10277642;28;20453;-59
2021/08/11 01:28:49;;;;;;;9.47;6.53;;;;;;;;;;10277414;28;20240;-60
2021/08/11 01:33:56;;;;;;;8.30;5.50;;;;;;;;;;10276025;28;20060;-57
2021/08/11 01:38:59;;;;;;;8.23;5.30;;;;;;;;;;10277457;28;20053;-59
2021/08/11 01:43:59;;;;;;;6.63;4.65;;;;;;;;;;10276740;28;20216;-58
2021/08/11 01:49:01;;;;;;;5.13;4.68;;;;;;;;;;10278458;28;20052;-59
2021/08/11 01:54:01;;;;;;;7.88;4.93;;;;;;;;;;10277240;28;20410;-58
2021/08/11 01:59:01;;;;;;;4.88;4.35;;;;;;;;;;10276762;28;20052;-59
2021/08/11 02:04:02;;;;;;;5.00;4.50;;;;;;;;;;10276598;28;20045;-59
2021/08/11 02:09:01;;;;;;;8.77;4.72;;;;;;;;;;10276529;28;20508;-59
2021/08/11 02:14:01;;;;;;;5.70;4.40;;;;;;;;;;10275732;28;20052;-60
2021/08/11 02:19:00;;;;;;;6.22;4.10;;;;;;;;;;10275557;28;20080;-60
2021/08/11 02:24:03;;;;;;;9.90;4.82;;;;;;;;;;10275965;28;20045;-60
2021/08/11 02:29:06;;;;;;;6.65;4.78;;;;;;;;;;10275176;28;20052;-59
2021/08/11 02:34:07;;;;;;;4.80;4.03;;;;;;;;;;10274966;28;20067;-59
2021/08/11 02:39:14;;;;;;;5.55;4.15;;;;;;;;;;10275066;28;20083;-60
2021/08/11 02:44:16;;;;;;;6.55;4.38;;;;;;;;;;10274577;28;20049;-59
2021/08/11 02:49:16;;;;;;;4.60;3.97;;;;;;;;;;10276372;28;20052;-57
2021/08/11 02:54:16;;;;;;;6.40;4.03;;;;;;;;;;10274932;28;20087;-59
2021/08/11 02:59:16;;;;;;;5.55;4.93;;;;;;;;;;10274198;28;20048;-58
2021/08/11 03:04:15;;;;;;;5.88;4.93;;;;;;;;;;10278720;28;20044;-59
2021/08/11 03:09:17;;;;;;;8.32;4.43;;;;;;;;;;10299421;28;20048;-59
2021/08/11 03:14:15;;;;;;;10.15;4.63;;;;;;;;;;10298087;28;20481;-59
2021/08/11 03:19:16;;;;;;;4.88;4.10;;;;;;;;;;10279047;28;20068;-59
2021/08/11 03:24:19;;;;;;;10.70;4.60;;;;;;;;;;10283736;28;20083;-59
2021/08/11 03:29:18;;;;;;;8.30;4.60;;;;;;;;;;10295698;28;20080;-58
2021/08/11 03:34:17;;;;;;;7.28;4.88;;;;;;;;;;10287864;28;20073;-59
2021/08/11 03:39:23;;;;;;;12.07;6.75;;;;;;;;;;10302015;28;20076;-59
2021/08/11 03:44:21;;;;;;;9.43;6.85;;;;;;;;;;10311770;28;20053;-60
2021/08/11 03:49:21;;;;;;;11.88;6.07;;;;;;;;;;10312351;28;20076;-60
2021/08/11 03:54:21;;;;;;;8.10;5.85;;;;;;;;;;10314616;28;20045;-59
2021/08/11 03:59:20;;;;;;;10.40;6.47;;;;;;;;;;10322909;28;20072;-60
2021/08/11 04:04:19;;;;;;;7.50;5.28;;;;;;;;;;10322188;28;20044;-60
2021/08/11 04:09:17;;;;;;;7.63;5.13;;;;;;;;;;10322679;28;20063;-60
2021/08/11 04:14:16;;;;;;;8.07;7.25;;;;;;;;;;10322441;28;20049;-60
2021/08/11 04:19:15;;;;;;;9.77;6.38;;;;;;;;;;10322126;28;20091;-59
2021/08/11 04:24:14;;;;;;;9.48;6.22;;;;;;;;;;10322633;28;20390;-60
2021/08/11 04:29:12;;;;;;;14.15;11.95;;;;;;;;;;10321904;28;20049;-59
2021/08/11 04:34:10;;;;;;;7.60;5.95;;;;;;;;;;10321453;28;20071;-59
2021/08/11 04:39:10;;;;;;;9.43;6.95;;;;;;;;;;10321456;28;20091;-59
2021/08/11 04:44:10;;;;;;;11.48;5.90;;;;;;;;;;10321375;28;20053;-59
2021/08/11 04:49:09;;;;;;;10.30;6.78;;;;;;;;;;10330774;28;20433;-60
2021/08/11 04:54:07;;;;;;;8.15;5.55;;;;;;;;;;10320950;28;20060;-60
2021/08/11 04:59:06;;;;;;;8.82;5.88;;;;;;;;;;10320956;28;20080;-59
2021/08/11 05:04:05;;;;;;;6.05;4.95;;;;;;;;;;10321167;28;20048;-60
2021/08/11 05:09:04;;;;;;;6.55;5.20;;;;;;;;;;10321245;28;20067;-59
2021/08/11 05:14:02;;;;;;;10.30;5.63;;;;;;;;;;10320483;28;20055;-59
2021/08/11 05:19:02;;;;;;;6.32;5.78;;;;;;;;;;10319770;28;20088;-60
2021/08/11 05:24:00;;;;;;;10.27;5.90;;;;;;;;;;10320159;28;20044;-59
2021/08/11 05:28:58;;;;;;;18.65;6.40;;;;;;;;;;10319737;28;20059;-59
2021/08/11 05:33:56;;;;;;;9.05;5.68;;;;;;;;;;10319642;28;20458;-59
2021/08/11 05:38:56;;;;;;;6.65;5.88;;;;;;;;;;10319009;28;20087;-59
2021/08/11 05:43:54;;;;;;;13.25;5.45;;;;;;;;;;10319013;28;20049;-59
2021/08/11 05:48:53;;;;;;;8.57;5.68;;;;;;;;;;10319441;28;20501;-59
2021/08/11 05:53:51;;;;;;;9.00;5.93;;;;;;;;;;10318853;28;20059;-59
2021/08/11 05:58:50;;;;;;;8.77;5.05;;;;;;;;;;10318481;28;20095;-60
2021/08/11 06:03:49;;;;;;;9.93;5.13;;;;;;;;;;10317895;28;20056;-59
2021/08/11 06:08:49;;;;;;;8.80;5.30;;;;;;;;;;10316568;28;20048;-60
2021/08/11 06:13:47;;;;;;;7.57;4.78;;;;;;;;;;10317720;28;20449;-59
2021/08/11 06:18:47;;;;;;;10.63;4.75;;;;;;;;;;10317511;28;20468;-58
2021/08/11 06:23:45;;;;;;;4.20;3.80;;;;;;;;;;10317553;28;20043;-59
2021/08/11 06:28:43;;;;;;;6.20;4.20;;;;;;;;;;10317473;28;20068;-59
2021/08/11 06:33:42;;;;;;;8.40;4.55;;;;;;;;;;10317004;28;20045;-60
2021/08/11 06:38:43;;;;;;;6.45;4.25;;;;;;;;;;10316811;28;20087;-59
2021/08/11 06:43:41;;;;;;;4.18;3.63;;;;;;;;;;10317094;28;20084;-59
2021/08/11 06:48:40;;;;;;;8.40;5.13;;;;;;;;;;10315537;28;20503;-59
2021/08/11 06:53:38;;;;;;;11.75;4.70;;;;;;;;;;10316875;28;20098;-59
2021/08/11 06:58:38;;;;;;;30.05;6.13;;;;;;;;;;10315889;28;20071;-58
2021/08/11 07:03:36;;;;;;;11.30;5.25;;;;;;;;;;10316450;28;20057;-59
2021/08/11 07:08:35;;;;;;;8.52;4.07;;;;;;;;;;10315760;28;20044;-60
2021/08/11 07:13:33;;;;;;;18.70;4.40;;;;;;;;;;10315680;28;20509;-58
2021/08/11 07:18:33;;;;;;;8.98;4.68;;;;;;;;;;10315930;28;20079;-59
2021/08/11 07:23:32;;;;;;;6.88;4.32;;;;;;;;;;10315128;28;20427;-59
2021/08/11 07:28:30;;;;;;;8.40;4.43;;;;;;;;;;10315850;28;20082;-58
2021/08/11 07:33:28;;;;;;;6.85;4.20;;;;;;;;;;10322403;28;20523;-59
2021/08/11 07:38:28;;;;;;;5.28;3.90;;;;;;;;;;10324292;28;20080;-59
2021/08/11 07:43:26;;;;;;;5.82;4.00;;;;;;;;;;10323444;28;20080;-60
2021/08/11 07:48:25;;;;;;;6.28;3.97;;;;;;;;;;10323855;28;20049;-60
2021/08/11 07:53:23;;;;;;;4.78;4.18;;;;;;;;;;10322853;28;20459;-59
2021/08/11 07:58:24;;;;;;;4.97;4.30;;;;;;;;;;10322830;28;20076;-60
2021/08/11 08:03:22;;;;;;;5.95;4.47;;;;;;;;;;10322732;28;20090;-59
2021/08/11 08:08:23;;;;;;;4.90;4.10;;;;;;;;;;10322362;28;20040;-59
2021/08/11 08:13:24;;;;;;;5.03;4.22;;;;;;;;;;10322440;28;20080;-59
2021/08/11 08:18:23;;;;;;;10.15;4.35;;;;;;;;;;10322013;28;20087;-60
2021/08/11 08:23:22;;;;;;;5.07;4.30;;;;;;;;;;10321918;28;20659;-59
2021/08/11 08:28:21;;;;;;;4.95;4.50;;;;;;;;;;10321741;28;20075;-59
2021/08/11 08:33:20;;;;;;;8.82;4.43;;;;;;;;;;10321502;28;20053;-60
2021/08/11 08:38:20;;;;;;;5.60;4.82;;;;;;;;;;10321648;28;20049;-60
2021/08/11 08:43:37;;;;;;;8.38;4.65;;;;;;;;;;10321355;28;20421;-60
2021/08/11 08:48:39;;;;;;;5.25;4.78;;;;;;;;;;10320908;28;20445;-60
2021/08/11 08:53:37;;;;;;;6.13;4.95;;;;;;;;;;10320884;28;20044;-59
2021/08/11 08:58:38;;;;;;;6.78;5.13;;;;;;;;;;10321306;28;20080;-57
2021/08/11 09:03:36;;;;;;;5.45;4.70;;;;;;;;;;10320523;28;20055;-57
2021/08/11 09:08:36;;;;;;;8.25;4.53;;;;;;;;;;10320387;28;20068;-56
2021/08/11 09:13:34;;;;;;;7.75;4.05;;;;;;;;;;10320269;28;20442;-55
2021/08/11 09:18:33;;;;;;;5.30;4.07;;;;;;;;;;10320312;28;20470;-55
2021/08/11 09:23:37;;;;;;;14.25;4.55;;;;;;;;;;10320473;28;20044;-56
2021/08/11 09:28:36;;;;;;;5.70;4.40;;;;;;;;;;10319490;28;20048;-52
2021/08/11 09:33:36;;;;;;;8.23;4.85;;;;;;;;;;10319021;28;20061;-56
2021/08/11 09:38:53;;;;;;;11.23;5.43;;;;;;;;;;10319738;28;20083;-52
2021/08/11 09:44:03;;;;;;;7.43;4.55;;;;;;;;;;10319444;28;20453;-50
2021/08/11 09:49:01;;;;;;;8.88;4.65;;;;;;;;;;10319508;28;20437;-53
2021/08/11 09:54:06;;;;;;;7.00;4.72;;;;;;;;;;10317617;28;20055;-56
2021/08/11 09:59:07;;;;;;;8.25;4.55;;;;;;;;;;10318276;28;20072;-55
2021/08/11 10:04:07;;;;;;;9.85;4.38;;;;;;;;;;10318228;28;20052;-55
2021/08/11 10:09:14;;;;;;;5.97;4.38;;;;;;;;;;10318135;28;20072;-55
2021/08/11 10:14:13;;;;;;;7.53;4.82;;;;;;;;;;10318278;28;20681;-56
2021/08/11 10:19:12;;;;;;;7.30;4.55;;;;;;;;;;10317582;28;20080;-54
2021/08/11 10:24:12;;;;;;;7.18;4.53;;;;;;;;;;10317235;28;20087;-55
2021/08/11 10:29:11;;;;;;;7.32;4.53;;;;;;;;;;10316385;28;20460;-55
2021/08/11 10:34:11;;;;;;;7.90;5.00;;;;;;;;;;10316844;28;20055;-57
2021/08/11 10:39:14;;;;;;;8.88;4.28;;;;;;;;;;10316907;28;20098;-56
2021/08/11 10:44:16;;;;;;;8.27;4.53;;;;;;;;;;10317049;28;20051;-54
2021/08/11 10:49:18;;;;;;;7.90;4.05;;;;;;;;;;10313593;28;20347;-57
2021/08/11 10:54:18;;;;;;;4.53;4.13;;;;;;;;;;10316369;28;20052;-56
2021/08/11 10:59:46;;;;;;;8.75;4.70;;;;;;;;;;10316492;28;20078;-58
2021/08/11 11:04:46;;;;;;;7.22;4.50;;;;;;;;;;10239451;28;20560;-57
2021/08/11 11:09:47;;;;;;;6.47;4.65;;;;;;;;;;10316372;28;20043;-57
2021/08/11 11:14:46;;;;;;;5.97;4.40;;;;;;;;;;10316295;28;20055;-56
2021/08/11 11:20:03;;;;;;;6.55;4.70;;;;;;;;;;10316063;28;20080;-54
2021/08/11 11:25:03;;;;;;;8.98;5.35;;;;;;;;;;10316015;28;20088;-56
2021/08/11 11:30:01;;;;;;;5.50;4.63;;;;;;;;;;10316028;28;20044;-56
2021/08/11 11:35:15;;;;;;;7.03;4.60;;;;;;;;;;10315950;28;20064;-52
2021/08/11 11:40:18;;;;;;;9.00;4.75;;;;;;;;;;10316265;28;20450;-56
2021/08/11 11:45:16;;;;;;;;;;;;;;;;;;10316159;28;20044;-56
2021/08/11 11:50:26;;;;;;;6.95;4.70;;;;;;;;;;10315481;28;20296;-54
2021/08/11 11:55:28;;;;;;;6.43;4.47;;;;;;;;;;10315879;28;20045;-56
2021/08/11 12:00:27;;;;;;;5.63;4.13;;;;;;;;;;10315662;28;20130;-56
2021/08/11 12:05:25;;;;;;;9.60;4.85;;;;;;;;;;10315354;28;20072;-54
2021/08/11 12:10:24;;;;;;;4.65;4.18;;;;;;;;;;10315407;28;20045;-55
2021/08/11 12:15:24;;;;;;;5.05;4.55;;;;;;;;;;10315388;28;20532;-55
2021/08/11 12:20:26;;;;;;;6.60;5.30;;;;;;;;;;10322884;28;20429;-55
2021/08/11 12:25:25;;;;;;;6.13;5.00;;;;;;;;;;10322479;28;20342;-55
2021/08/11 12:30:26;;;;;;;6.30;5.40;;;;;;;;;;10322255;28;20052;-56
2021/08/11 12:35:24;;;;;;;6.57;4.05;;;;;;;;;;10322020;28;20060;-57
2021/08/11 12:40:27;;;;;;;4.55;4.15;;;;;;;;;;10321916;28;20079;-57
2021/08/11 12:45:28;;;;;;;8.20;7.15;;;;;;;;;;10321143;28;20049;-56
2021/08/11 12:50:26;;;;;;;5.32;4.65;;;;;;;;;;10321689;28;20511;-56
2021/08/11 12:55:31;;;;;;;4.75;4.13;;;;;;;;;;10321704;28;20076;-57
2021/08/11 13:00:41;;;;;;;9.82;5.25;;;;;;;;;;10321242;28;20080;-56
2021/08/11 13:05:50;;;;;;;5.65;3.97;;;;;;;;;;10321057;28;20052;-54
2021/08/11 13:10:53;;;;;;;7.50;4.78;;;;;;;;;;10320535;28;20079;-57
2021/08/11 13:21:15;;;;;;;5.85;5.13;;;;;;;;;;10506299;27;20391;-57
2021/08/11 13:26:13;;;;;;;5.88;5.20;;;;;;;;;;10518192;27;20050;-56
2021/08/11 13:31:12;;;;;;;4.65;4.25;;;;;;;;;;10518777;27;20045;-56
2021/08/11 13:36:10;;;;;;;7.28;4.88;;;;;;;;;;10518091;27;20043;-56
2021/08/11 13:41:10;;;;;;;5.88;4.45;;;;;;;;;;10518393;27;20080;-56
2021/08/11 13:46:08;;;;;;;8.57;5.75;;;;;;;;;;10518180;27;20054;-57
2021/08/11 13:51:07;;;;;;;7.13;5.25;;;;;;;;;;10516793;27;20074;-59
2021/08/11 13:56:09;;;;;;;7.45;4.70;;;;;;;;;;10518753;27;20035;-56
2021/08/11 14:01:08;;;;;;;6.27;5.67;;;;;;;;;;10518536;27;20057;-58
2021/08/11 14:06:07;;;;;;;9.00;5.30;;;;;;;;;;10518360;27;20047;-57
2021/08/11 14:11:05;;;;;;;6.35;5.03;;;;;;;;;;10518260;27;20046;-57
2021/08/11 14:16:04;;;;;;;8.27;4.30;;;;;;;;;;10516795;27;20054;-56
2021/08/11 14:21:04;;;;;;;5.40;4.88;;;;;;;;;;10515962;27;20057;-51
2021/08/11 14:26:02;;;;;;;6.80;4.85;;;;;;;;;;10507794;27;20466;-54
2021/08/11 14:31:01;;;;;;;5.93;4.28;;;;;;;;;;10483030;27;20038;-57
2021/08/11 14:35:59;;;;;;;8.02;5.03;;;;;;;;;;10470666;27;20042;-55
2021/08/11 14:41:00;;;;;;;10.32;8.27;;;;;;;;;;10487334;27;20062;-57
2021/08/11 14:45:58;;;;;;;8.23;4.78;;;;;;;;;;10483357;27;20498;-58
2021/08/11 14:50:56;;;;;;;4.53;4.13;;;;;;;;;;10474270;27;20071;-59
2021/08/11 14:55:55;;;;;;;10.13;7.30;;;;;;;;;;10479383;27;20046;-60
2021/08/11 15:00:54;;;;;;;8.45;5.15;;;;;;;;;;10487217;27;20082;-60
2021/08/11 15:05:53;;;;;;;5.40;4.20;;;;;;;;;;10481842;27;20093;-62
2021/08/11 15:10:51;;;;;;;6.53;4.75;;;;;;;;;;10464003;27;20049;-61
2021/08/11 15:15:49;;;;;;;8.30;4.97;;;;;;;;;;10481211;27;20074;-61
2021/08/11 15:20:49;;;;;;;6.32;4.53;;;;;;;;;;10478834;27;20066;-61
2021/08/11 15:25:47;;;;;;;5.80;4.05;;;;;;;;;;10462757;27;20432;-60
2021/08/11 15:30:46;;;;;;;9.30;4.45;;;;;;;;;;10471865;27;20065;-61
2021/08/11 15:35:44;;;;;;;17.10;5.80;;;;;;;;;;10452987;27;20073;-60
2021/08/11 15:40:44;;;;;;;13.55;4.78;;;;;;;;;;10473432;27;20077;-60
2021/08/11 15:45:43;;;;;;;19.48;5.57;;;;;;;;;;10484765;27;20047;-61
2021/08/11 15:50:41;;;;;;;7.60;5.88;;;;;;;;;;10467401;27;20063;-60
2021/08/11 15:55:40;;;;;;;11.02;5.78;;;;;;;;;;10460324;27;20038;-60
2021/08/11 16:00:40;;;;;;;11.77;4.68;;;;;;;;;;10462088;27;20073;-60
2021/08/11 16:05:38;;;;;;;43.47;6.60;;;;;;;;;;10452735;27;20055;-61
2021/08/11 16:10:37;;;;;;;6.70;4.80;;;;;;;;;;10458884;27;20081;-60
2021/08/11 16:15:35;;;;;;;14.57;5.57;;;;;;;;;;10462225;27;20054;-61
2021/08/11 16:20:35;;;;;;;6.38;4.93;;;;;;;;;;10450459;27;20097;-60
2021/08/11 16:25:35;;;;;;;10.68;5.28;;;;;;;;;;10483847;27;20050;-60
2021/08/11 16:30:34;;;;;;;19.45;6.65;;;;;;;;;;10483157;27;20120;-61
2021/08/11 16:35:32;;;;;;;9.95;5.57;;;;;;;;;;10484498;27;20043;-60
2021/08/11 16:40:32;;;;;;;12.25;6.22;;;;;;;;;;10479503;27;20646;-61
2021/08/11 16:45:30;;;;;;;6.75;5.07;;;;;;;;;;10479428;27;20069;-60
2021/08/11 16:50:28;;;;;;;5.85;5.25;;;;;;;;;;10459153;27;20760;-59
2021/08/11 16:55:27;;;;;;;9.07;5.63;;;;;;;;;;10481255;27;20439;-59
2021/08/11 17:00:26;;;;;;;7.15;4.95;;;;;;;;;;10482829;27;20074;-59
2021/08/11 17:05:25;;;;;;;12.00;5.18;;;;;;;;;;10482307;27;20055;-59
2021/08/11 17:10:24;;;;;;;8.00;4.82;;;;;;;;;;10482170;27;20042;-60
2021/08/11 17:15:23;;;;;;;10.00;5.60;;;;;;;;;;10481953;27;20081;-60
2021/08/11 17:20:22;;;;;;;22.75;9.32;;;;;;;;;;10480848;27;20518;-60
2021/08/11 17:25:21;;;;;;;10.45;5.95;;;;;;;;;;10458600;27;20073;-59
2021/08/11 17:30:19;;;;;;;9.75;4.40;;;;;;;;;;10453081;27;20639;-59
2021/08/11 17:35:17;;;;;;;8.32;4.68;;;;;;;;;;10460200;27;20047;-60
2021/08/11 17:40:17;;;;;;;8.77;5.00;;;;;;;;;;10449126;27;20078;-59
2021/08/11 17:45:16;;;;;;;6.90;6.20;;;;;;;;;;10453658;27;20070;-59
2021/08/11 17:50:14;;;;;;;8.43;6.63;;;;;;;;;;10454026;27;20039;-60
2021/08/11 17:55:12;;;;;;;5.28;4.78;;;;;;;;;;10439779;28;20046;-59
2021/08/11 18:00:13;;;;;;;14.05;12.27;;;;;;;;;;10442455;27;20081;-59
2021/08/11 18:05:11;;;;;;;13.52;10.50;;;;;;;;;;10472695;27;20510;-59
2021/08/11 18:10:10;;;;;;;7.10;6.38;;;;;;;;;;10489491;27;20521;-59
2021/08/11 18:15:08;;;;;;;14.90;11.02;;;;;;;;;;10487089;27;20075;-58
2021/08/11 18:20:09;;;;;;;11.73;5.82;;;;;;;;;;10484418;27;20085;-56
2021/08/11 18:25:08;;;;;;;7.97;4.60;;;;;;;;;;10472456;27;20074;-59
2021/08/11 18:30:07;;;;;;;9.55;5.18;;;;;;;;;;10474454;27;20049;-58
2021/08/11 18:35:10;;;;;;;7.03;4.22;;;;;;;;;;10461811;27;20055;-56
2021/08/11 18:40:09;;;;;;;4.57;4.18;;;;;;;;;;10482552;27;20074;-57
2021/08/11 18:45:09;;;;;;;15.23;5.00;;;;;;;;;;10462082;27;20086;-59
2021/08/11 18:50:08;;;;;;;6.80;4.13;;;;;;;;;;10476206;27;20524;-59
2021/08/11 18:55:11;;;;;;;8.80;3.90;;;;;;;;;;10481774;27;20081;-59
2021/08/11 19:00:10;;;;;;;4.55;4.15;;;;;;;;;;10464536;27;20078;-59
2021/08/11 19:05:09;;;;;;;5.65;4.63;;;;;;;;;;10483058;27;20073;-59
2021/08/11 19:10:09;;;;;;;6.28;4.47;;;;;;;;;;10465549;27;20082;-55
2021/08/11 19:15:09;;;;;;;6.68;4.28;;;;;;;;;;10463488;27;20071;-57
2021/08/11 19:20:08;;;;;;;4.45;3.83;;;;;;;;;;10469821;27;20089;-58
2021/08/11 19:25:08;;;;;;;6.00;4.47;;;;;;;;;;10471584;27;20742;-59
2021/08/11 19:30:06;;;;;;;7.65;4.95;;;;;;;;;;10461359;27;20070;-59
2021/08/11 19:35:07;;;;;;;4.68;4.25;;;;;;;;;;10460762;27;20066;-59
2021/08/11 19:40:06;;;;;;;6.43;4.05;;;;;;;;;;10456780;27;20477;-59
2021/08/11 19:45:06;;;;;;;7.13;4.80;;;;;;;;;;10471374;27;20466;-60
2021/08/11 19:50:06;;;;;;;6.22;4.30;;;;;;;;;;10455081;27;20467;-58
2021/08/11 19:55:05;;;;;;;5.85;4.10;;;;;;;;;;10467373;27;20043;-59
2021/08/11 20:00:04;;;;;;;6.95;6.25;;;;;;;;;;10466256;27;20066;-57
2021/08/11 20:05:03;;;;;;;6.80;4.40;;;;;;;;;;10466759;27;20066;-57
2021/08/11 20:10:02;;;;;;;9.88;5.13;;;;;;;;;;10446306;27;20039;-58
2021/08/11 20:15:01;;;;;;;4.35;3.95;;;;;;;;;;10452770;27;20039;-59
2021/08/11 20:19:59;;;;;;;6.50;4.60;;;;;;;;;;10452346;27;20086;-57
2021/08/11 20:24:58;;;;;;;5.00;4.50;;;;;;;;;;10442119;27;20325;-56
2021/08/11 20:29:57;;;;;;;4.65;4.10;;;;;;;;;;10441472;27;20463;-59
2021/08/11 20:34:55;;;;;;;5.80;4.40;;;;;;;;;;10454774;27;20085;-60
2021/08/11 20:39:54;;;;;;;4.90;4.40;;;;;;;;;;10441055;27;20079;-60
2021/08/11 20:44:52;;;;;;;6.63;4.22;;;;;;;;;;10440893;27;20054;-59
2021/08/11 20:49:52;;;;;;;9.40;4.20;;;;;;;;;;10440920;27;20411;-58
2021/08/11 20:54:50;;;;;;;7.57;4.13;;;;;;;;;;10441146;27;20514;-59
2021/08/11 20:59:48;;;;;;;5.03;4.45;;;;;;;;;;10442656;27;20098;-58
2021/08/11 21:04:46;;;;;;;7.70;4.47;;;;;;;;;;10481790;27;20034;-58
2021/08/11 21:09:46;;;;;;;8.00;3.70;;;;;;;;;;10481752;27;20043;-58
2021/08/11 21:14:44;;;;;;;4.65;3.85;;;;;;;;;;10482480;27;20042;-58
2021/08/11 21:19:43;;;;;;;6.97;3.92;;;;;;;;;;10481016;27;20497;-59
2021/08/11 21:24:41;;;;;;;4.65;3.90;;;;;;;;;;10481697;27;20506;-59
2021/08/11 21:29:41;;;;;;;4.60;3.90;;;;;;;;;;10481855;27;20051;-59
2021/08/11 21:34:39;;;;;;;5.50;4.35;;;;;;;;;;10482221;27;20049;-60
2021/08/11 21:39:37;;;;;;;4.45;4.05;;;;;;;;;;10483924;27;20035;-60
2021/08/11 21:44:36;;;;;;;8.95;5.03;;;;;;;;;;10485974;27;20517;-59
2021/08/11 21:49:35;;;;;;;5.25;4.43;;;;;;;;;;10490236;27;20035;-59
2021/08/11 21:54:34;;;;;;;8.77;5.13;;;;;;;;;;10489257;27;20491;-58
2021/08/11 21:59:32;;;;;;;6.22;5.03;;;;;;;;;;10490103;27;20057;-59
2021/08/11 22:04:30;;;;;;;9.77;4.90;;;;;;;;;;10489971;27;20043;-58
2021/08/11 22:09:30;;;;;;;5.90;5.07;;;;;;;;;;10488888;27;20054;-59
2021/08/11 22:14:28;;;;;;;6.25;4.88;;;;;;;;;;10488772;27;20057;-59
2021/08/11 22:19:27;;;;;;;5.80;4.93;;;;;;;;;;10487998;27;20074;-59
2021/08/11 22:24:25;;;;;;;6.50;4.72;;;;;;;;;;10489307;27;20062;-59
2021/08/11 22:29:25;;;;;;;6.07;4.55;;;;;;;;;;10489068;27;20043;-60
2021/08/11 22:34:23;;;;;;;7.53;4.60;;;;;;;;;;10488838;27;20053;-58
2021/08/11 22:39:22;;;;;;;13.20;4.97;;;;;;;;;;10487941;27;20078;-59
2021/08/11 22:44:20;;;;;;;9.15;4.90;;;;;;;;;;10487590;27;20502;-60
2021/08/11 22:49:20;;;;;;;8.27;4.65;;;;;;;;;;10468304;27;20050;-60
2021/08/11 22:54:18;;;;;;;5.47;4.60;;;;;;;;;;10487489;27;20054;-57
2021/08/11 22:59:17;;;;;;;6.10;5.07;;;;;;;;;;10487982;27;20038;-59
2021/08/11 23:04:15;;;;;;;9.38;5.18;;;;;;;;;;10487586;27;20070;-59
2021/08/11 23:09:15;;;;;;;4.60;4.20;;;;;;;;;;10487604;27;20082;-59
2021/08/11 23:14:13;;;;;;;8.00;4.72;;;;;;;;;;10486363;27;20054;-58
2021/08/11 23:19:12;;;;;;;6.32;5.03;;;;;;;;;;10486174;27;20081;-59
2021/08/11 23:24:10;;;;;;;4.65;4.18;;;;;;;;;;10467669;27;20042;-59
2021/08/11 23:29:10;;;;;;;6.47;4.57;;;;;;;;;;10486564;27;20042;-58
2021/08/11 23:34:08;;;;;;;8.57;3.88;;;;;;;;;;10485252;27;20416;-59
2021/08/11 23:39:06;;;;;;;5.13;4.63;;;;;;;;;;10485485;27;20045;-59
2021/08/11 23:44:05;;;;;;;4.60;4.10;;;;;;;;;;10485207;27;20070;-59
2021/08/11 23:49:04;;;;;;;5.18;4.68;;;;;;;;;;10485723;27;20054;-58
2021/08/11 23:54:03;;;;;;;7.20;4.40;;;;;;;;;;10484855;27;20495;-59
2021/08/11 23:59:01;;;;;;;5.95;4.82;;;;;;;;;;10485462;27;20376;-59
